createdAt,value
2019-04-03T00:00:04.468Z,2
2019-04-03T00:05:04.285Z,2
2019-04-03T00:10:02.317Z,2
2019-04-03T00:15:01.754Z,3
2019-04-03T00:20:02.482Z,4
2019-04-03T00:25:01.828Z,2
2019-04-03T00:30:02.227Z,2
2019-04-03T00:35:01.563Z,1
2019-04-03T00:40:01.415Z,1
2019-04-03T00:45:01.795Z,1
2019-04-03T00:50:02.290Z,1
2019-04-03T00:55:01.675Z,1
2019-04-03T01:00:02.079Z,2
2019-04-03T01:05:01.716Z,1
2019-04-03T01:10:01.590Z,0
2019-04-03T01:15:02.208Z,1
2019-04-03T01:20:01.963Z,1
2019-04-03T01:25:01.291Z,3
2019-04-03T01:30:01.720Z,1
2019-04-03T01:35:02.103Z,1
2019-04-03T01:40:02.050Z,1
2019-04-03T01:45:01.565Z,1
2019-04-03T01:50:01.954Z,2
2019-04-03T01:55:04.071Z,1
2019-04-03T02:00:01.784Z,1
2019-04-03T02:05:01.440Z,2
2019-04-03T02:10:02.269Z,2
2019-04-03T02:15:02.073Z,1
2019-04-03T02:20:01.515Z,1
2019-04-03T02:25:02.193Z,1
2019-04-03T02:30:01.900Z,1
2019-04-03T02:35:01.956Z,2
2019-04-03T02:40:01.950Z,0
2019-04-03T02:45:02.410Z,1
2019-04-03T02:50:01.788Z,2
2019-04-03T02:55:02.180Z,2
2019-04-03T03:00:01.833Z,1
2019-04-03T03:05:01.581Z,0
2019-04-03T03:10:01.496Z,0
2019-04-03T03:15:02.556Z,2
2019-04-03T03:20:05.311Z,2
2019-04-03T03:25:02.356Z,3
2019-04-03T03:30:02.367Z,3
2019-04-03T03:35:12.261Z,3
2019-04-03T03:40:01.959Z,1
2019-04-03T03:45:01.373Z,3
2019-04-03T03:50:01.821Z,3
2019-04-03T03:55:02.408Z,3
2019-04-03T04:00:01.796Z,2
2019-04-03T04:05:01.772Z,4
2019-04-03T04:10:02.334Z,3
2019-04-03T04:15:01.998Z,3
2019-04-03T04:20:05.107Z,3
2019-04-03T04:25:02.101Z,4
2019-04-03T04:30:01.796Z,3
2019-04-03T04:35:02.364Z,4
2019-04-03T04:40:02.250Z,5
2019-04-03T04:45:01.814Z,5
2019-04-03T04:50:02.220Z,5
2019-04-03T04:55:02.793Z,3
2019-04-03T05:00:02.396Z,5
2019-04-03T05:05:02.061Z,5
2019-04-03T05:10:01.841Z,4
2019-04-03T05:15:02.196Z,5
2019-04-03T05:20:01.706Z,4
2019-04-03T05:25:02.134Z,5
2019-04-03T05:30:01.594Z,6
2019-04-03T05:35:01.959Z,7
2019-04-03T05:40:01.748Z,5
2019-04-03T05:45:04.183Z,5
2019-04-03T05:50:02.356Z,6
2019-04-03T05:55:01.702Z,3
2019-04-03T06:00:02.795Z,5
2019-04-03T06:05:02.234Z,5
2019-04-03T06:10:02.158Z,5
2019-04-03T06:15:01.375Z,5
2019-04-03T06:20:01.815Z,5
2019-04-03T06:25:01.296Z,4
2019-04-03T06:30:02.032Z,5
2019-04-03T06:35:01.472Z,4
2019-04-03T06:40:03.768Z,3
2019-04-03T06:45:02.263Z,8
2019-04-03T06:50:01.615Z,7
2019-04-03T06:55:03.343Z,6
2019-04-03T07:00:01.417Z,5
2019-04-03T07:05:02.974Z,4
2019-04-03T07:10:02.341Z,4
2019-04-03T07:15:01.639Z,6
2019-04-03T07:20:12.482Z,5
2019-04-03T07:25:03.529Z,5
2019-04-03T07:30:02.489Z,3
2019-04-03T07:35:05.194Z,3
2019-04-03T07:40:01.319Z,4
2019-04-03T07:45:03.041Z,3
2019-04-03T07:50:01.511Z,3
2019-04-03T07:55:02.204Z,3
2019-04-03T08:00:01.569Z,6
2019-04-03T08:05:02.499Z,5
2019-04-03T08:10:01.682Z,4
2019-04-03T08:15:01.973Z,4
2019-04-03T08:20:01.347Z,4
2019-04-03T08:25:01.691Z,4
2019-04-03T08:30:02.444Z,5
2019-04-03T08:35:03.736Z,4
2019-04-03T08:40:01.319Z,3
2019-04-03T08:45:01.709Z,3
2019-04-03T08:50:02.553Z,11
2019-04-03T08:55:02.024Z,42
2019-04-03T09:00:01.939Z,43
2019-04-03T09:05:01.737Z,23
2019-04-03T09:10:01.614Z,53
2019-04-03T09:15:01.437Z,72
2019-04-03T09:20:02.009Z,64
2019-04-03T09:25:01.373Z,39
2019-04-03T09:30:01.879Z,68
2019-04-03T09:35:02.426Z,15
2019-04-03T09:40:02.281Z,32
2019-04-03T09:45:01.961Z,70
2019-04-03T09:50:01.378Z,31
2019-04-03T09:55:02.009Z,64
2019-04-03T10:00:01.671Z,13
2019-04-03T10:05:01.361Z,82
2019-04-03T10:10:02.165Z,14
2019-04-03T10:15:01.693Z,13
2019-04-03T10:20:02.196Z,10
2019-04-03T10:25:04.846Z,11
2019-04-03T10:30:02.262Z,39
2019-04-03T10:35:01.563Z,9
2019-04-03T10:40:01.605Z,9
2019-04-03T10:45:01.981Z,10
2019-04-03T10:50:02.604Z,7
2019-04-03T10:55:01.972Z,8
2019-04-03T11:00:01.314Z,11
2019-04-03T11:05:01.981Z,8
2019-04-03T11:10:01.767Z,8
2019-04-03T11:15:01.685Z,9
2019-04-03T11:20:02.413Z,6
2019-04-03T11:25:01.973Z,8
2019-04-03T11:30:02.089Z,6
2019-04-03T11:35:01.682Z,7
2019-04-03T11:40:04.916Z,8
2019-04-03T11:45:04.302Z,5
2019-04-03T11:50:02.282Z,7
2019-04-03T11:55:01.638Z,7
2019-04-03T12:00:02.184Z,5
2019-04-03T12:05:02.027Z,6
2019-04-03T12:10:03.836Z,6
2019-04-03T12:15:02.280Z,4
2019-04-03T12:20:02.317Z,5
2019-04-03T12:25:01.872Z,6
2019-04-03T12:30:02.263Z,5
2019-04-03T12:35:01.667Z,4
2019-04-03T12:40:02.122Z,5
2019-04-03T12:45:01.962Z,4
2019-04-03T12:50:01.416Z,5
2019-04-03T12:55:01.878Z,3
2019-04-03T13:00:02.475Z,3
2019-04-03T13:05:05.051Z,1
2019-04-03T13:10:01.922Z,2
2019-04-03T13:15:03.580Z,2
2019-04-03T13:20:05.128Z,3
2019-04-03T13:25:02.295Z,2
2019-04-03T13:30:01.678Z,3
2019-04-03T13:35:04.710Z,3
2019-04-03T13:40:05.647Z,3
2019-04-03T13:45:01.650Z,3
2019-04-03T13:50:03.517Z,4
2019-04-03T13:55:02.190Z,3
2019-04-03T14:00:06.815Z,4
2019-04-03T14:05:01.934Z,2
2019-04-03T14:10:02.212Z,3
2019-04-03T14:15:04.329Z,1
2019-04-03T14:20:01.845Z,2
2019-04-03T14:25:02.225Z,2
2019-04-03T14:30:01.965Z,3
2019-04-03T14:35:15.402Z,2
2019-04-03T14:40:01.541Z,5
2019-04-03T14:45:01.901Z,2
2019-04-03T14:50:02.708Z,2
2019-04-03T14:55:15.749Z,3
2019-04-03T15:00:02.873Z,4
2019-04-03T15:05:01.567Z,4
2019-04-03T15:10:01.423Z,3
2019-04-03T15:15:02.379Z,5
2019-04-03T15:20:01.919Z,3
2019-04-03T15:25:03.045Z,4
2019-04-03T15:30:01.501Z,5
2019-04-03T15:35:01.957Z,4
2019-04-03T15:40:01.847Z,5
2019-04-03T15:45:02.322Z,6
2019-04-03T15:50:01.862Z,8
2019-04-03T15:55:04.085Z,13
2019-04-03T16:00:03.485Z,12
2019-04-03T16:05:02.303Z,13
2019-04-03T16:10:02.099Z,10
2019-04-03T16:15:01.868Z,9
2019-04-03T16:20:02.311Z,9
2019-04-03T16:25:02.142Z,6
2019-04-03T16:30:01.579Z,6
2019-04-03T16:35:01.967Z,7
2019-04-03T16:40:04.169Z,7
2019-04-03T16:45:04.760Z,7
2019-04-03T16:50:01.410Z,6
2019-04-03T16:55:02.316Z,6
2019-04-03T17:00:01.716Z,5
2019-04-03T17:05:02.113Z,6
2019-04-03T17:10:02.022Z,4
2019-04-03T17:15:01.925Z,6
2019-04-03T17:20:01.501Z,6
2019-04-03T17:25:02.342Z,5
2019-04-03T17:30:01.898Z,7
2019-04-03T17:35:01.474Z,5
2019-04-03T17:40:05.683Z,4
2019-04-03T17:45:02.304Z,6
2019-04-03T17:50:01.637Z,5
2019-04-03T17:55:01.982Z,5
2019-04-03T18:00:01.283Z,4
2019-04-03T18:05:01.979Z,7
2019-04-03T18:10:01.836Z,3
2019-04-03T18:15:01.516Z,3
2019-04-03T18:20:02.010Z,6
2019-04-03T18:25:01.370Z,5
2019-04-03T18:30:01.779Z,4
2019-04-03T18:35:02.133Z,4
2019-04-03T18:40:01.931Z,3
2019-04-03T18:45:02.344Z,4
2019-04-03T18:50:03.598Z,4
2019-04-03T18:55:02.170Z,6
2019-04-03T19:00:01.453Z,6
2019-04-03T19:05:02.657Z,4
2019-04-03T19:10:07.411Z,5
2019-04-03T19:15:03.209Z,4
2019-04-03T19:20:10.333Z,5
2019-04-03T19:25:01.508Z,5
2019-04-03T19:30:01.900Z,4
2019-04-03T19:35:02.264Z,4
2019-04-03T19:40:02.144Z,4
2019-04-03T19:45:01.497Z,4
2019-04-03T19:50:01.876Z,2
2019-04-03T19:55:02.239Z,4
2019-04-03T20:00:03.146Z,3
2019-04-03T20:05:01.392Z,4
2019-04-03T20:10:03.191Z,1
2019-04-03T20:15:02.451Z,3
2019-04-03T20:20:02.100Z,3
2019-04-03T20:25:01.478Z,3
2019-04-03T20:30:01.866Z,3
2019-04-03T20:35:02.250Z,4
2019-04-03T20:40:02.030Z,3
2019-04-03T20:45:01.367Z,2
2019-04-03T20:50:01.694Z,3
2019-04-03T20:55:02.038Z,3
2019-04-03T21:00:03.233Z,3
2019-04-03T21:05:01.726Z,2
2019-04-03T21:10:01.583Z,4
2019-04-03T21:15:08.183Z,1
2019-04-03T21:20:01.449Z,2
2019-04-03T21:25:04.914Z,2
2019-04-03T21:30:01.740Z,3
2019-04-03T21:35:03.917Z,3
2019-04-03T21:40:04.731Z,3
2019-04-03T21:45:02.807Z,3
2019-04-03T21:50:03.594Z,1
2019-04-03T21:55:04.736Z,3
2019-04-03T22:00:01.383Z,3
2019-04-03T22:05:02.050Z,3
2019-04-03T22:10:02.567Z,4
2019-04-03T22:15:02.184Z,3
2019-04-03T22:20:01.590Z,3
2019-04-03T22:25:01.952Z,3
2019-04-03T22:30:01.560Z,3
2019-04-03T22:35:01.920Z,2
2019-04-03T22:40:01.754Z,2
2019-04-03T22:45:02.124Z,2
2019-04-03T22:50:04.909Z,3
2019-04-03T22:55:01.930Z,4
2019-04-03T23:00:02.329Z,3
2019-04-03T23:05:01.949Z,4
2019-04-03T23:10:01.889Z,5
2019-04-03T23:15:02.203Z,3
2019-04-03T23:20:01.640Z,4
2019-04-03T23:25:01.985Z,4
2019-04-03T23:30:01.335Z,4
2019-04-03T23:35:01.702Z,4
2019-04-03T23:40:01.634Z,5
2019-04-03T23:45:02.033Z,4
2019-04-03T23:50:01.432Z,7
2019-04-03T23:55:04.424Z,5
